sensor_id;sensor_type;location;lat;lon;timestamp;P1;durP1;ratioP1;P2;durP2;ratioP2
13075;SDS011;6604;52.484;13.330;2023-01-31T07:48:15;8.97;;;1.47;;
13075;SDS011;6604;52.484;13.330;2023-01-31T07:50:47;11.47;;;2.10;;
13075;SDS011;6604;52.484;13.330;2023-01-31T07:53:14;8.57;;;2.33;;
13075;SDS011;6604;52.484;13.330;2023-01-31T07:55:40;11.47;;;2.70;;
13075;SDS011;6604;52.484;13.330;2023-01-31T07:58:11;8.57;;;1.97;;
13075;SDS011;6604;52.484;13.330;2023-01-31T08:00:37;5.00;;;2.00;;
13075;SDS011;6604;52.484;13.330;2023-01-31T08:03:24;9.53;;;2.10;;
13075;SDS011;6604;52.484;13.330;2023-01-31T08:06:01;8.93;;;2.80;;
13075;SDS011;6604;52.484;13.330;2023-01-31T08:08:28;8.43;;;1.83;;
13075;SDS011;6604;52.484;13.330;2023-01-31T08:10:55;9.07;;;1.70;;
13075;SDS011;6604;52.484;13.330;2023-01-31T08:13:21;7.33;;;1.87;;
13075;SDS011;6604;52.484;13.330;2023-01-31T08:15:49;6.40;;;1.93;;
13075;SDS011;6604;52.484;13.330;2023-01-31T08:18:16;7.63;;;1.50;;
13075;SDS011;6604;52.484;13.330;2023-01-31T08:20:44;6.70;;;2.20;;
13075;SDS011;6604;52.484;13.330;2023-01-31T08:23:10;10.87;;;2.40;;
13075;SDS011;6604;52.484;13.330;2023-01-31T08:25:37;12.23;;;1.87;;
13075;SDS011;6604;52.484;13.330;2023-01-31T08:28:03;9.10;;;1.70;;
13075;SDS011;6604;52.484;13.330;2023-01-31T08:30:30;14.17;;;2.70;;
13075;SDS011;6604;52.484;13.330;2023-01-31T08:32:57;10.43;;;2.10;;
13075;SDS011;6604;52.484;13.330;2023-01-31T08:35:24;8.77;;;2.97;;
13075;SDS011;6604;52.484;13.330;2023-01-31T08:37:52;6.37;;;1.57;;
13075;SDS011;6604;52.484;13.330;2023-01-31T08:40:18;5.63;;;1.70;;
13075;SDS011;6604;52.484;13.330;2023-01-31T08:42:52;10.43;;;1.93;;
13075;SDS011;6604;52.484;13.330;2023-01-31T08:45:18;7.13;;;1.70;;
13075;SDS011;6604;52.484;13.330;2023-01-31T08:47:45;10.77;;;2.17;;
13075;SDS011;6604;52.484;13.330;2023-01-31T08:50:13;7.20;;;1.73;;
13075;SDS011;6604;52.484;13.330;2023-01-31T08:52:40;9.60;;;2.50;;
13075;SDS011;6604;52.484;13.330;2023-01-31T08:55:08;7.73;;;2.63;;
13075;SDS011;6604;52.484;13.330;2023-01-31T08:57:38;7.27;;;1.80;;
13075;SDS011;6604;52.484;13.330;2023-01-31T09:00:05;8.90;;;2.40;;
13075;SDS011;6604;52.484;13.330;2023-01-31T09:02:31;3.77;;;1.40;;
13075;SDS011;6604;52.484;13.330;2023-01-31T09:04:58;7.50;;;2.00;;
13075;SDS011;6604;52.484;13.330;2023-01-31T09:07:25;6.30;;;1.33;;
13075;SDS011;6604;52.484;13.330;2023-01-31T09:09:51;9.47;;;2.10;;
13075;SDS011;6604;52.484;13.330;2023-01-31T09:12:22;8.33;;;2.03;;
13075;SDS011;6604;52.484;13.330;2023-01-31T09:14:49;9.87;;;3.03;;
13075;SDS011;6604;52.484;13.330;2023-01-31T09:17:16;6.33;;;1.90;;
13075;SDS011;6604;52.484;13.330;2023-01-31T09:19:42;11.47;;;3.20;;
13075;SDS011;6604;52.484;13.330;2023-01-31T09:22:09;8.07;;;1.83;;
13075;SDS011;6604;52.484;13.330;2023-01-31T09:24:38;13.43;;;3.10;;
13075;SDS011;6604;52.484;13.330;2023-01-31T09:27:05;7.97;;;2.10;;
13075;SDS011;6604;52.484;13.330;2023-01-31T09:29:33;10.83;;;3.03;;
13075;SDS011;6604;52.484;13.330;2023-01-31T09:32:00;7.93;;;2.30;;
13075;SDS011;6604;52.484;13.330;2023-01-31T09:34:27;12.37;;;3.63;;
13075;SDS011;6604;52.484;13.330;2023-01-31T09:36:53;12.20;;;3.33;;
13075;SDS011;6604;52.484;13.330;2023-01-31T09:39:21;7.97;;;2.47;;
13075;SDS011;6604;52.484;13.330;2023-01-31T09:41:49;4.97;;;2.13;;
13075;SDS011;6604;52.484;13.330;2023-01-31T09:44:18;9.57;;;3.43;;
13075;SDS011;6604;52.484;13.330;2023-01-31T09:46:55;8.07;;;2.97;;
13075;SDS011;6604;52.484;13.330;2023-01-31T09:49:49;11.90;;;2.57;;
13075;SDS011;6604;52.484;13.330;2023-01-31T09:52:51;11.50;;;2.53;;
13075;SDS011;6604;52.484;13.330;2023-01-31T09:55:34;10.93;;;2.83;;
13075;SDS011;6604;52.484;13.330;2023-01-31T09:58:07;6.13;;;2.07;;
13075;SDS011;6604;52.484;13.330;2023-01-31T10:00:42;13.07;;;2.60;;
13075;SDS011;6604;52.484;13.330;2023-01-31T10:05:58;11.10;;;2.40;;
13075;SDS011;6604;52.484;13.330;2023-01-31T10:08:29;8.70;;;2.47;;
13075;SDS011;6604;52.484;13.330;2023-01-31T10:11:05;12.87;;;3.00;;
13075;SDS011;6604;52.484;13.330;2023-01-31T10:13:36;14.97;;;2.70;;
13075;SDS011;6604;52.484;13.330;2023-01-31T10:16:08;11.33;;;2.90;;
13075;SDS011;6604;52.484;13.330;2023-01-31T10:18:48;12.43;;;2.13;;
13075;SDS011;6604;52.484;13.330;2023-01-31T10:21:27;10.13;;;2.07;;
13075;SDS011;6604;52.484;13.330;2023-01-31T10:23:59;8.50;;;2.30;;
13075;SDS011;6604;52.484;13.330;2023-01-31T10:26:28;7.97;;;1.83;;
13075;SDS011;6604;52.484;13.330;2023-01-31T10:28:56;10.13;;;2.43;;
13075;SDS011;6604;52.484;13.330;2023-01-31T10:31:26;9.83;;;2.23;;
13075;SDS011;6604;52.484;13.330;2023-01-31T10:33:56;12.07;;;2.40;;
13075;SDS011;6604;52.484;13.330;2023-01-31T10:36:44;7.30;;;2.00;;
13075;SDS011;6604;52.484;13.330;2023-01-31T10:39:17;7.53;;;1.87;;
13075;SDS011;6604;52.484;13.330;2023-01-31T10:41:58;10.63;;;2.63;;
13075;SDS011;6604;52.484;13.330;2023-01-31T10:44:33;8.03;;;2.43;;
13075;SDS011;6604;52.484;13.330;2023-01-31T10:47:06;8.83;;;2.40;;
13075;SDS011;6604;52.484;13.330;2023-01-31T10:49:53;10.87;;;2.10;;
13075;SDS011;6604;52.484;13.330;2023-01-31T10:52:30;10.27;;;2.47;;
13075;SDS011;6604;52.484;13.330;2023-01-31T11:00:59;9.70;;;2.80;;
13075;SDS011;6604;52.484;13.330;2023-01-31T11:06:38;8.70;;;2.50;;
13075;SDS011;6604;52.484;13.330;2023-01-31T11:09:42;11.90;;;2.47;;
13075;SDS011;6604;52.484;13.330;2023-01-31T11:12:39;10.40;;;2.40;;
13075;SDS011;6604;52.484;13.330;2023-01-31T11:15:14;10.57;;;2.30;;
13075;SDS011;6604;52.484;13.330;2023-01-31T11:17:43;11.63;;;2.57;;
13075;SDS011;6604;52.484;13.330;2023-01-31T11:20:17;14.60;;;2.93;;
13075;SDS011;6604;52.484;13.330;2023-01-31T11:22:46;15.90;;;3.00;;
13075;SDS011;6604;52.484;13.330;2023-01-31T11:25:18;8.57;;;2.63;;
13075;SDS011;6604;52.484;13.330;2023-01-31T11:27:45;9.70;;;2.70;;
13075;SDS011;6604;52.484;13.330;2023-01-31T11:30:18;11.87;;;3.13;;
13075;SDS011;6604;52.484;13.330;2023-01-31T11:32:50;8.40;;;3.07;;
13075;SDS011;6604;52.484;13.330;2023-01-31T11:38:22;7.30;;;2.90;;
13075;SDS011;6604;52.484;13.330;2023-01-31T11:43:32;12.90;;;3.40;;
13075;SDS011;6604;52.484;13.330;2023-01-31T11:45:59;10.13;;;2.70;;
13075;SDS011;6604;52.484;13.330;2023-01-31T11:48:28;10.97;;;3.37;;
13075;SDS011;6604;52.484;13.330;2023-01-31T11:50:59;11.13;;;3.77;;
13075;SDS011;6604;52.484;13.330;2023-01-31T11:53:26;6.83;;;3.23;;
13075;SDS011;6604;52.484;13.330;2023-01-31T11:55:56;9.40;;;3.13;;
13075;SDS011;6604;52.484;13.330;2023-01-31T11:58:29;10.30;;;3.20;;
13075;SDS011;6604;52.484;13.330;2023-01-31T12:00:58;8.87;;;3.03;;
13075;SDS011;6604;52.484;13.330;2023-01-31T12:03:26;15.93;;;3.37;;
13075;SDS011;6604;52.484;13.330;2023-01-31T12:05:58;11.83;;;3.30;;
13075;SDS011;6604;52.484;13.330;2023-01-31T12:08:26;14.07;;;3.60;;
13075;SDS011;6604;52.484;13.330;2023-01-31T12:10:53;10.13;;;3.43;;
13075;SDS011;6604;52.484;13.330;2023-01-31T12:13:21;10.63;;;3.50;;
13075;SDS011;6604;52.484;13.330;2023-01-31T12:15:51;9.60;;;3.63;;
13075;SDS011;6604;52.484;13.330;2023-01-31T12:18:23;14.53;;;3.37;;
13075;SDS011;6604;52.484;13.330;2023-01-31T12:20:52;12.80;;;3.67;;
13075;SDS011;6604;52.484;13.330;2023-01-31T12:23:26;9.63;;;2.67;;
13075;SDS011;6604;52.484;13.330;2023-01-31T12:26:00;12.33;;;3.27;;
13075;SDS011;6604;52.484;13.330;2023-01-31T12:28:32;12.53;;;4.00;;
13075;SDS011;6604;52.484;13.330;2023-01-31T12:31:05;12.23;;;3.70;;
13075;SDS011;6604;52.484;13.330;2023-01-31T12:33:36;9.70;;;3.00;;
13075;SDS011;6604;52.484;13.330;2023-01-31T12:36:19;7.27;;;3.47;;
13075;SDS011;6604;52.484;13.330;2023-01-31T12:38:51;10.87;;;3.13;;
13075;SDS011;6604;52.484;13.330;2023-01-31T12:41:22;11.53;;;3.43;;
13075;SDS011;6604;52.484;13.330;2023-01-31T12:43:56;5.23;;;2.90;;
13075;SDS011;6604;52.484;13.330;2023-01-31T12:46:29;11.73;;;3.43;;
13075;SDS011;6604;52.484;13.330;2023-01-31T12:51:50;10.87;;;2.80;;
13075;SDS011;6604;52.484;13.330;2023-01-31T12:54:33;8.47;;;3.33;;
13075;SDS011;6604;52.484;13.330;2023-01-31T12:57:15;12.63;;;3.90;;
13075;SDS011;6604;52.484;13.330;2023-01-31T12:59:49;10.97;;;3.73;;
13075;SDS011;6604;52.484;13.330;2023-01-31T13:05:02;7.07;;;3.97;;
13075;SDS011;6604;52.484;13.330;2023-01-31T13:07:35;8.87;;;3.90;;
13075;SDS011;6604;52.484;13.330;2023-01-31T13:10:24;10.80;;;3.57;;
13075;SDS011;6604;52.484;13.330;2023-01-31T13:12:52;10.43;;;3.90;;
13075;SDS011;6604;52.484;13.330;2023-01-31T13:15:20;12.30;;;4.43;;
13075;SDS011;6604;52.484;13.330;2023-01-31T13:17:59;12.50;;;4.37;;
13075;SDS011;6604;52.484;13.330;2023-01-31T13:20:28;13.83;;;4.53;;
13075;SDS011;6604;52.484;13.330;2023-01-31T13:22:59;9.27;;;4.20;;
13075;SDS011;6604;52.484;13.330;2023-01-31T13:25:29;14.27;;;5.00;;
13075;SDS011;6604;52.484;13.330;2023-01-31T13:28:01;9.17;;;4.40;;
13075;SDS011;6604;52.484;13.330;2023-01-31T13:30:32;13.10;;;4.53;;
13075;SDS011;6604;52.484;13.330;2023-01-31T13:33:14;11.00;;;4.33;;
13075;SDS011;6604;52.484;13.330;2023-01-31T13:35:44;14.13;;;4.43;;
13075;SDS011;6604;52.484;13.330;2023-01-31T13:38:16;9.03;;;3.83;;
13075;SDS011;6604;52.484;13.330;2023-01-31T13:40:48;9.50;;;4.20;;
13075;SDS011;6604;52.484;13.330;2023-01-31T13:43:16;9.90;;;4.17;;
13075;SDS011;6604;52.484;13.330;2023-01-31T13:45:44;7.77;;;4.00;;
13075;SDS011;6604;52.484;13.330;2023-01-31T13:48:17;7.87;;;4.60;;
13075;SDS011;6604;52.484;13.330;2023-01-31T13:50:47;6.73;;;3.40;;
13075;SDS011;6604;52.484;13.330;2023-01-31T13:53:19;10.80;;;3.90;;
13075;SDS011;6604;52.484;13.330;2023-01-31T13:55:47;7.73;;;3.63;;
13075;SDS011;6604;52.484;13.330;2023-01-31T13:58:16;11.03;;;3.47;;
13075;SDS011;6604;52.484;13.330;2023-01-31T14:00:47;5.33;;;3.40;;
13075;SDS011;6604;52.484;13.330;2023-01-31T14:03:15;8.27;;;4.23;;
13075;SDS011;6604;52.484;13.330;2023-01-31T14:05:49;8.70;;;4.60;;
13075;SDS011;6604;52.484;13.330;2023-01-31T14:08:28;5.90;;;4.30;;
13075;SDS011;6604;52.484;13.330;2023-01-31T14:10:55;6.57;;;4.77;;
13075;SDS011;6604;52.484;13.330;2023-01-31T14:13:36;5.53;;;3.57;;
13075;SDS011;6604;52.484;13.330;2023-01-31T14:16:04;6.23;;;3.23;;
13075;SDS011;6604;52.484;13.330;2023-01-31T14:18:51;4.90;;;3.80;;
13075;SDS011;6604;52.484;13.330;2023-01-31T14:24:53;4.10;;;2.93;;
13075;SDS011;6604;52.484;13.330;2023-01-31T14:27:13;6.27;;;3.80;;
13075;SDS011;6604;52.484;13.330;2023-01-31T14:29:42;3.93;;;3.17;;
13075;SDS011;6604;52.484;13.330;2023-01-31T14:32:12;4.60;;;3.20;;
13075;SDS011;6604;52.484;13.330;2023-01-31T14:34:39;3.13;;;2.77;;
13075;SDS011;6604;52.484;13.330;2023-01-31T14:37:13;6.23;;;3.20;;
13075;SDS011;6604;52.484;13.330;2023-01-31T14:48:16;3.87;;;2.83;;
13075;SDS011;6604;52.484;13.330;2023-01-31T14:50:50;4.30;;;3.10;;
13075;SDS011;6604;52.484;13.330;2023-01-31T14:53:27;4.53;;;3.00;;
13075;SDS011;6604;52.484;13.330;2023-01-31T14:56:01;4.10;;;3.10;;
13075;SDS011;6604;52.484;13.330;2023-01-31T14:58:32;5.47;;;3.83;;
13075;SDS011;6604;52.484;13.330;2023-01-31T15:01:01;6.43;;;5.13;;
13075;SDS011;6604;52.484;13.330;2023-01-31T15:03:30;4.60;;;3.70;;
13075;SDS011;6604;52.484;13.330;2023-01-31T15:06:05;9.53;;;4.40;;
13075;SDS011;6604;52.484;13.330;2023-01-31T15:08:42;4.17;;;3.30;;
13075;SDS011;6604;52.484;13.330;2023-01-31T15:11:13;8.37;;;4.30;;
13075;SDS011;6604;52.484;13.330;2023-01-31T15:13:41;5.13;;;3.60;;
13075;SDS011;6604;52.484;13.330;2023-01-31T15:16:18;6.97;;;3.73;;
13075;SDS011;6604;52.484;13.330;2023-01-31T15:18:48;5.13;;;4.00;;
13075;SDS011;6604;52.484;13.330;2023-01-31T15:21:23;7.53;;;4.30;;
13075;SDS011;6604;52.484;13.330;2023-01-31T15:23:54;7.10;;;4.10;;
13075;SDS011;6604;52.484;13.330;2023-01-31T15:26:27;4.13;;;3.70;;
13075;SDS011;6604;52.484;13.330;2023-01-31T15:28:55;4.90;;;3.87;;
13075;SDS011;6604;52.484;13.330;2023-01-31T15:31:25;8.10;;;4.40;;
13075;SDS011;6604;52.484;13.330;2023-01-31T15:33:55;3.80;;;3.50;;
13075;SDS011;6604;52.484;13.330;2023-01-31T15:36:24;4.30;;;3.50;;
13075;SDS011;6604;52.484;13.330;2023-01-31T15:38:53;4.90;;;3.87;;
13075;SDS011;6604;52.484;13.330;2023-01-31T15:41:22;7.03;;;3.60;;
13075;SDS011;6604;52.484;13.330;2023-01-31T15:43:49;5.63;;;3.90;;
13075;SDS011;6604;52.484;13.330;2023-01-31T15:46:21;3.83;;;3.50;;
13075;SDS011;6604;52.484;13.330;2023-01-31T15:48:48;4.60;;;4.20;;
13075;SDS011;6604;52.484;13.330;2023-01-31T15:51:16;5.77;;;3.70;;
13075;SDS011;6604;52.484;13.330;2023-01-31T15:53:43;5.00;;;3.97;;
13075;SDS011;6604;52.484;13.330;2023-01-31T15:56:14;6.43;;;4.07;;
13075;SDS011;6604;52.484;13.330;2023-01-31T15:58:45;8.17;;;4.40;;
13075;SDS011;6604;52.484;13.330;2023-01-31T16:01:13;6.03;;;5.13;;
13075;SDS011;6604;52.484;13.330;2023-01-31T16:03:41;7.70;;;5.20;;
13075;SDS011;6604;52.484;13.330;2023-01-31T16:06:15;6.27;;;4.60;;
13075;SDS011;6604;52.484;13.330;2023-01-31T16:08:49;9.00;;;5.00;;
13075;SDS011;6604;52.484;13.330;2023-01-31T16:11:16;7.67;;;5.13;;
13075;SDS011;6604;52.484;13.330;2023-01-31T16:13:43;7.47;;;5.33;;
13075;SDS011;6604;52.484;13.330;2023-01-31T16:16:11;7.40;;;5.30;;
13075;SDS011;6604;52.484;13.330;2023-01-31T16:18:38;6.30;;;4.77;;
13075;SDS011;6604;52.484;13.330;2023-01-31T16:21:12;7.83;;;5.10;;
13075;SDS011;6604;52.484;13.330;2023-01-31T16:23:55;7.10;;;4.60;;
13075;SDS011;6604;52.484;13.330;2023-01-31T16:26:22;7.10;;;4.40;;
13075;SDS011;6604;52.484;13.330;2023-01-31T16:28:52;6.03;;;4.67;;
13075;SDS011;6604;52.484;13.330;2023-01-31T16:31:21;8.77;;;4.73;;
13075;SDS011;6604;52.484;13.330;2023-01-31T16:33:49;8.97;;;5.40;;
13075;SDS011;6604;52.484;13.330;2023-01-31T16:36:19;6.97;;;5.47;;
13075;SDS011;6604;52.484;13.330;2023-01-31T16:38:53;7.03;;;5.50;;
13075;SDS011;6604;52.484;13.330;2023-01-31T16:41:29;6.83;;;5.30;;
13075;SDS011;6604;52.484;13.330;2023-01-31T16:44:01;10.73;;;6.03;;
13075;SDS011;6604;52.484;13.330;2023-01-31T16:46:34;7.67;;;5.47;;
13075;SDS011;6604;52.484;13.330;2023-01-31T16:49:02;9.77;;;6.10;;
13075;SDS011;6604;52.484;13.330;2023-01-31T16:51:39;7.43;;;5.47;;
13075;SDS011;6604;52.484;13.330;2023-01-31T16:54:14;6.53;;;4.97;;
13075;SDS011;6604;52.484;13.330;2023-01-31T16:56:43;9.03;;;5.77;;
13075;SDS011;6604;52.484;13.330;2023-01-31T17:01:56;8.07;;;5.33;;
13075;SDS011;6604;52.484;13.330;2023-01-31T17:04:25;8.47;;;5.67;;
13075;SDS011;6604;52.484;13.330;2023-01-31T17:06:59;7.20;;;5.63;;
13075;SDS011;6604;52.484;13.330;2023-01-31T17:09:28;10.73;;;5.90;;
13075;SDS011;6604;52.484;13.330;2023-01-31T17:11:55;7.70;;;5.93;;
13075;SDS011;6604;52.484;13.330;2023-01-31T17:14:21;9.20;;;5.33;;
13075;SDS011;6604;52.484;13.330;2023-01-31T17:16:49;9.70;;;5.83;;
13075;SDS011;6604;52.484;13.330;2023-01-31T17:19:15;7.20;;;6.20;;
13075;SDS011;6604;52.484;13.330;2023-01-31T17:21:42;11.27;;;5.70;;
13075;SDS011;6604;52.484;13.330;2023-01-31T17:24:10;11.60;;;6.63;;
13075;SDS011;6604;52.484;13.330;2023-01-31T17:26:38;8.30;;;5.53;;
13075;SDS011;6604;52.484;13.330;2023-01-31T17:29:05;8.27;;;6.07;;
13075;SDS011;6604;52.484;13.330;2023-01-31T17:31:32;8.10;;;5.77;;
13075;SDS011;6604;52.484;13.330;2023-01-31T17:33:58;8.87;;;6.10;;
13075;SDS011;6604;52.484;13.330;2023-01-31T17:36:25;9.37;;;6.40;;
13075;SDS011;6604;52.484;13.330;2023-01-31T17:38:51;8.83;;;6.60;;
13075;SDS011;6604;52.484;13.330;2023-01-31T17:41:18;11.67;;;6.87;;
13075;SDS011;6604;52.484;13.330;2023-01-31T17:43:47;10.87;;;6.27;;
13075;SDS011;6604;52.484;13.330;2023-01-31T17:46:14;7.40;;;5.87;;
13075;SDS011;6604;52.484;13.330;2023-01-31T17:48:41;8.47;;;5.97;;
13075;SDS011;6604;52.484;13.330;2023-01-31T17:51:07;8.97;;;5.83;;
13075;SDS011;6604;52.484;13.330;2023-01-31T17:53:34;9.33;;;5.97;;
13075;SDS011;6604;52.484;13.330;2023-01-31T17:56:01;8.17;;;5.73;;
13075;SDS011;6604;52.484;13.330;2023-01-31T17:58:28;11.63;;;6.37;;
13075;SDS011;6604;52.484;13.330;2023-01-31T18:00:56;10.20;;;6.67;;
13075;SDS011;6604;52.484;13.330;2023-01-31T18:03:23;8.40;;;5.67;;
13075;SDS011;6604;52.484;13.330;2023-01-31T18:05:50;9.80;;;6.30;;
13075;SDS011;6604;52.484;13.330;2023-01-31T18:08:16;7.77;;;5.87;;
13075;SDS011;6604;52.484;13.330;2023-01-31T18:10:43;9.27;;;6.13;;
13075;SDS011;6604;52.484;13.330;2023-01-31T18:13:10;9.37;;;6.13;;
13075;SDS011;6604;52.484;13.330;2023-01-31T18:15:39;12.37;;;5.73;;
13075;SDS011;6604;52.484;13.330;2023-01-31T18:18:07;8.10;;;5.57;;
13075;SDS011;6604;52.484;13.330;2023-01-31T18:20:34;8.53;;;5.83;;
13075;SDS011;6604;52.484;13.330;2023-01-31T18:23:01;10.03;;;5.70;;
13075;SDS011;6604;52.484;13.330;2023-01-31T18:25:27;8.40;;;5.70;;
13075;SDS011;6604;52.484;13.330;2023-01-31T18:27:54;9.67;;;5.40;;
13075;SDS011;6604;52.484;13.330;2023-01-31T18:30:21;10.17;;;5.87;;
13075;SDS011;6604;52.484;13.330;2023-01-31T18:32:50;8.53;;;5.43;;
13075;SDS011;6604;52.484;13.330;2023-01-31T18:35:18;13.50;;;8.10;;
13075;SDS011;6604;52.484;13.330;2023-01-31T18:37:45;9.13;;;5.07;;
13075;SDS011;6604;52.484;13.330;2023-01-31T18:40:13;7.23;;;5.30;;
13075;SDS011;6604;52.484;13.330;2023-01-31T18:42:39;7.30;;;4.80;;
13075;SDS011;6604;52.484;13.330;2023-01-31T18:45:06;10.53;;;4.80;;
13075;SDS011;6604;52.484;13.330;2023-01-31T18:47:34;9.13;;;5.30;;
13075;SDS011;6604;52.484;13.330;2023-01-31T18:50:01;6.93;;;4.23;;
13075;SDS011;6604;52.484;13.330;2023-01-31T18:52:30;7.43;;;5.30;;
13075;SDS011;6604;52.484;13.330;2023-01-31T18:54:56;6.43;;;4.47;;
13075;SDS011;6604;52.484;13.330;2023-01-31T18:57:23;7.43;;;4.30;;
13075;SDS011;6604;52.484;13.330;2023-01-31T18:59:49;5.27;;;4.13;;
13075;SDS011;6604;52.484;13.330;2023-01-31T19:02:15;8.00;;;4.63;;
13075;SDS011;6604;52.484;13.330;2023-01-31T19:04:42;8.33;;;4.90;;
13075;SDS011;6604;52.484;13.330;2023-01-31T19:07:08;6.40;;;4.17;;
13075;SDS011;6604;52.484;13.330;2023-01-31T19:09:36;6.00;;;4.07;;
13075;SDS011;6604;52.484;13.330;2023-01-31T19:12:03;6.20;;;3.93;;
13075;SDS011;6604;52.484;13.330;2023-01-31T19:14:29;4.23;;;3.53;;
13075;SDS011;6604;52.484;13.330;2023-01-31T19:16:56;5.57;;;3.80;;
13075;SDS011;6604;52.484;13.330;2023-01-31T19:19:23;5.53;;;3.60;;
13075;SDS011;6604;52.484;13.330;2023-01-31T19:21:50;7.03;;;3.30;;
13075;SDS011;6604;52.484;13.330;2023-01-31T19:24:17;6.30;;;3.63;;
13075;SDS011;6604;52.484;13.330;2023-01-31T19:26:45;5.70;;;3.30;;
13075;SDS011;6604;52.484;13.330;2023-01-31T19:29:12;7.27;;;3.77;;
13075;SDS011;6604;52.484;13.330;2023-01-31T19:31:38;8.83;;;3.20;;
13075;SDS011;6604;52.484;13.330;2023-01-31T19:34:05;3.67;;;2.10;;
13075;SDS011;6604;52.484;13.330;2023-01-31T19:36:32;4.30;;;1.30;;
13075;SDS011;6604;52.484;13.330;2023-01-31T19:38:59;2.93;;;1.27;;
13075;SDS011;6604;52.484;13.330;2023-01-31T19:41:28;2.33;;;1.07;;
13075;SDS011;6604;52.484;13.330;2023-01-31T19:43:57;3.20;;;0.90;;
13075;SDS011;6604;52.484;13.330;2023-01-31T19:46:24;3.40;;;1.30;;
13075;SDS011;6604;52.484;13.330;2023-01-31T19:48:51;4.90;;;1.00;;
13075;SDS011;6604;52.484;13.330;2023-01-31T19:51:18;5.87;;;1.67;;
13075;SDS011;6604;52.484;13.330;2023-01-31T19:53:45;5.70;;;1.10;;
13075;SDS011;6604;52.484;13.330;2023-01-31T19:56:12;3.97;;;1.37;;
13075;SDS011;6604;52.484;13.330;2023-01-31T19:58:39;1.33;;;1.00;;
13075;SDS011;6604;52.484;13.330;2023-01-31T20:01:08;3.30;;;1.03;;
13075;SDS011;6604;52.484;13.330;2023-01-31T20:03:35;5.00;;;1.77;;
13075;SDS011;6604;52.484;13.330;2023-01-31T20:06:01;4.00;;;1.30;;
13075;SDS011;6604;52.484;13.330;2023-01-31T20:08:29;4.40;;;1.20;;
13075;SDS011;6604;52.484;13.330;2023-01-31T20:10:56;3.97;;;1.30;;
13075;SDS011;6604;52.484;13.330;2023-01-31T20:13:22;9.93;;;1.47;;
13075;SDS011;6604;52.484;13.330;2023-01-31T20:15:55;3.87;;;1.23;;
13075;SDS011;6604;52.484;13.330;2023-01-31T20:18:22;4.17;;;1.30;;
13075;SDS011;6604;52.484;13.330;2023-01-31T20:20:49;16.30;;;5.13;;
13075;SDS011;6604;52.484;13.330;2023-01-31T20:23:16;10.53;;;4.37;;
13075;SDS011;6604;52.484;13.330;2023-01-31T20:25:42;6.30;;;2.40;;
13075;SDS011;6604;52.484;13.330;2023-01-31T20:28:09;4.13;;;2.47;;
13075;SDS011;6604;52.484;13.330;2023-01-31T20:30:35;6.97;;;2.23;;
13075;SDS011;6604;52.484;13.330;2023-01-31T20:33:02;7.13;;;2.37;;
13075;SDS011;6604;52.484;13.330;2023-01-31T20:35:30;5.63;;;2.20;;
13075;SDS011;6604;52.484;13.330;2023-01-31T20:37:56;6.77;;;1.77;;
13075;SDS011;6604;52.484;13.330;2023-01-31T20:40:22;5.63;;;1.77;;
13075;SDS011;6604;52.484;13.330;2023-01-31T20:42:49;14.73;;;5.27;;
13075;SDS011;6604;52.484;13.330;2023-01-31T20:45:16;6.17;;;1.90;;
13075;SDS011;6604;52.484;13.330;2023-01-31T20:47:42;10.30;;;2.10;;
13075;SDS011;6604;52.484;13.330;2023-01-31T20:50:09;6.43;;;1.80;;
13075;SDS011;6604;52.484;13.330;2023-01-31T20:52:37;5.93;;;1.90;;
13075;SDS011;6604;52.484;13.330;2023-01-31T20:55:04;5.20;;;1.40;;
13075;SDS011;6604;52.484;13.330;2023-01-31T20:57:30;5.27;;;1.90;;
13075;SDS011;6604;52.484;13.330;2023-01-31T20:59:57;4.67;;;1.37;;
13075;SDS011;6604;52.484;13.330;2023-01-31T21:02:23;5.67;;;1.57;;
13075;SDS011;6604;52.484;13.330;2023-01-31T21:04:50;5.93;;;1.73;;
13075;SDS011;6604;52.484;13.330;2023-01-31T21:07:16;6.87;;;1.80;;
13075;SDS011;6604;52.484;13.330;2023-01-31T21:09:44;5.37;;;1.73;;
13075;SDS011;6604;52.484;13.330;2023-01-31T21:12:11;10.53;;;2.30;;
13075;SDS011;6604;52.484;13.330;2023-01-31T21:14:37;6.03;;;1.73;;
13075;SDS011;6604;52.484;13.330;2023-01-31T21:17:04;15.27;;;5.53;;
13075;SDS011;6604;52.484;13.330;2023-01-31T21:19:30;9.67;;;2.00;;
13075;SDS011;6604;52.484;13.330;2023-01-31T21:21:57;4.33;;;1.93;;
13075;SDS011;6604;52.484;13.330;2023-01-31T21:24:23;3.30;;;1.40;;
13075;SDS011;6604;52.484;13.330;2023-01-31T21:26:51;7.03;;;1.57;;
13075;SDS011;6604;52.484;13.330;2023-01-31T21:29:18;8.83;;;1.77;;
13075;SDS011;6604;52.484;13.330;2023-01-31T21:31:44;11.90;;;1.97;;
13075;SDS011;6604;52.484;13.330;2023-01-31T21:34:10;7.87;;;1.70;;
13075;SDS011;6604;52.484;13.330;2023-01-31T21:36:37;7.47;;;1.50;;
13075;SDS011;6604;52.484;13.330;2023-01-31T21:39:03;6.00;;;1.73;;
13075;SDS011;6604;52.484;13.330;2023-01-31T21:41:30;6.27;;;1.50;;
13075;SDS011;6604;52.484;13.330;2023-01-31T21:44:15;9.33;;;1.70;;
13075;SDS011;6604;52.484;13.330;2023-01-31T21:46:41;11.20;;;4.53;;
13075;SDS011;6604;52.484;13.330;2023-01-31T21:49:09;4.30;;;1.40;;
13075;SDS011;6604;52.484;13.330;2023-01-31T21:51:36;4.93;;;1.20;;
13075;SDS011;6604;52.484;13.330;2023-01-31T21:54:03;5.47;;;1.27;;
13075;SDS011;6604;52.484;13.330;2023-01-31T21:56:29;2.40;;;0.90;;
13075;SDS011;6604;52.484;13.330;2023-01-31T21:58:56;4.47;;;1.00;;
13075;SDS011;6604;52.484;13.330;2023-01-31T22:01:25;1.17;;;0.73;;
13075;SDS011;6604;52.484;13.330;2023-01-31T22:03:51;3.07;;;0.90;;
13075;SDS011;6604;52.484;13.330;2023-01-31T22:06:19;2.70;;;0.90;;
13075;SDS011;6604;52.484;13.330;2023-01-31T22:08:48;2.10;;;0.57;;
13075;SDS011;6604;52.484;13.330;2023-01-31T22:11:15;4.90;;;1.00;;
13075;SDS011;6604;52.484;13.330;2023-01-31T22:13:41;5.17;;;1.00;;
13075;SDS011;6604;52.484;13.330;2023-01-31T22:16:08;5.17;;;1.20;;
13075;SDS011;6604;52.484;13.330;2023-01-31T22:18:37;3.80;;;1.30;;
13075;SDS011;6604;52.484;13.330;2023-01-31T22:21:04;4.77;;;1.47;;
13075;SDS011;6604;52.484;13.330;2023-01-31T22:23:31;29.27;;;14.90;;
13075;SDS011;6604;52.484;13.330;2023-01-31T22:26:00;19.10;;;8.07;;
13075;SDS011;6604;52.484;13.330;2023-01-31T22:28:27;7.93;;;1.50;;
